Terminal Aerodrome Forecast
Issued by NWS

Home | Current Version | Previous Version | Text Only | Print | Product List | Glossary On
Versions: 1 2 3 4 5 6 7 8 9 10 11 12 13
868
FTUS44 KEWX 080438 AAA
TAFSSF
TAF AMD
KSSF 080438Z 0805/0824 33004KT P6SM SCT250
     FM080900 36013KT P6SM SCT250
     FM081500 01012G22KT P6SM SCT250=

USA.gov is the U.S. government's official web portal to all federal, state and local government web resources and services.